sensor_id;sensor_type;location;lat;lon;timestamp;P1;durP1;ratioP1;P2;durP2;ratioP2
39020;SDS011;25188;51.958;5.842;2022-12-18T00:00:29;57.83;;;23.43;;
39020;SDS011;25188;51.958;5.842;2022-12-18T00:02:55;58.40;;;24.43;;
39020;SDS011;25188;51.958;5.842;2022-12-18T00:05:20;64.13;;;25.03;;
39020;SDS011;25188;51.958;5.842;2022-12-18T00:07:46;60.83;;;23.80;;
39020;SDS011;25188;51.958;5.842;2022-12-18T00:10:12;60.03;;;23.87;;
39020;SDS011;25188;51.958;5.842;2022-12-18T00:12:38;60.30;;;23.60;;
39020;SDS011;25188;51.958;5.842;2022-12-18T00:15:03;59.07;;;25.10;;
39020;SDS011;25188;51.958;5.842;2022-12-18T00:17:29;65.03;;;23.90;;
39020;SDS011;25188;51.958;5.842;2022-12-18T00:19:55;61.23;;;24.40;;
39020;SDS011;25188;51.958;5.842;2022-12-18T00:22:20;60.50;;;25.03;;
39020;SDS011;25188;51.958;5.842;2022-12-18T00:24:46;64.83;;;26.10;;
39020;SDS011;25188;51.958;5.842;2022-12-18T00:27:11;63.00;;;24.37;;
39020;SDS011;25188;51.958;5.842;2022-12-18T00:29:37;59.40;;;24.70;;
39020;SDS011;25188;51.958;5.842;2022-12-18T00:32:04;52.23;;;22.83;;
39020;SDS011;25188;51.958;5.842;2022-12-18T00:34:29;62.53;;;24.87;;
39020;SDS011;25188;51.958;5.842;2022-12-18T00:36:55;63.17;;;24.23;;
39020;SDS011;25188;51.958;5.842;2022-12-18T00:39:21;57.43;;;24.07;;
39020;SDS011;25188;51.958;5.842;2022-12-18T00:41:46;62.80;;;24.47;;
39020;SDS011;25188;51.958;5.842;2022-12-18T00:44:30;58.33;;;23.58;;
39020;SDS011;25188;51.958;5.842;2022-12-18T00:46:56;58.93;;;22.70;;
39020;SDS011;25188;51.958;5.842;2022-12-18T00:49:21;54.10;;;21.37;;
39020;SDS011;25188;51.958;5.842;2022-12-18T00:51:47;57.20;;;23.63;;
39020;SDS011;25188;51.958;5.842;2022-12-18T00:54:13;59.33;;;24.53;;
39020;SDS011;25188;51.958;5.842;2022-12-18T00:56:39;51.43;;;22.40;;
39020;SDS011;25188;51.958;5.842;2022-12-18T00:59:05;51.00;;;23.23;;
39020;SDS011;25188;51.958;5.842;2022-12-18T01:01:31;52.83;;;21.50;;
39020;SDS011;25188;51.958;5.842;2022-12-18T01:03:57;52.97;;;22.57;;
39020;SDS011;25188;51.958;5.842;2022-12-18T01:06:24;51.37;;;21.93;;
39020;SDS011;25188;51.958;5.842;2022-12-18T01:08:50;55.93;;;23.13;;
39020;SDS011;25188;51.958;5.842;2022-12-18T01:11:16;52.43;;;22.83;;
39020;SDS011;25188;51.958;5.842;2022-12-18T01:13:43;49.93;;;22.50;;
39020;SDS011;25188;51.958;5.842;2022-12-18T01:16:13;46.17;;;21.17;;
39020;SDS011;25188;51.958;5.842;2022-12-18T01:18:40;45.33;;;21.37;;
39020;SDS011;25188;51.958;5.842;2022-12-18T01:21:07;49.67;;;20.93;;
39020;SDS011;25188;51.958;5.842;2022-12-18T01:23:34;46.70;;;20.33;;
39020;SDS011;25188;51.958;5.842;2022-12-18T01:26:04;54.03;;;22.43;;
39020;SDS011;25188;51.958;5.842;2022-12-18T01:28:33;44.80;;;18.27;;
39020;SDS011;25188;51.958;5.842;2022-12-18T01:33:55;48.17;;;21.27;;
39020;SDS011;25188;51.958;5.842;2022-12-18T01:36:26;49.93;;;22.40;;
39020;SDS011;25188;51.958;5.842;2022-12-18T01:38:53;49.03;;;20.47;;
39020;SDS011;25188;51.958;5.842;2022-12-18T01:41:22;47.17;;;20.20;;
39020;SDS011;25188;51.958;5.842;2022-12-18T01:43:52;46.83;;;19.80;;
39020;SDS011;25188;51.958;5.842;2022-12-18T01:46:23;50.13;;;19.97;;
39020;SDS011;25188;51.958;5.842;2022-12-18T01:48:50;46.43;;;19.37;;
39020;SDS011;25188;51.958;5.842;2022-12-18T01:51:25;40.77;;;18.30;;
39020;SDS011;25188;51.958;5.842;2022-12-18T01:53:52;45.60;;;19.43;;
39020;SDS011;25188;51.958;5.842;2022-12-18T01:56:18;49.40;;;21.30;;
39020;SDS011;25188;51.958;5.842;2022-12-18T01:59:03;48.10;;;20.00;;
39020;SDS011;25188;51.958;5.842;2022-12-18T02:01:33;50.13;;;20.60;;
39020;SDS011;25188;51.958;5.842;2022-12-18T02:09:13;40.17;;;16.70;;
39020;SDS011;25188;51.958;5.842;2022-12-18T02:17:19;42.90;;;18.17;;
39020;SDS011;25188;51.958;5.842;2022-12-18T02:19:55;43.70;;;18.00;;
39020;SDS011;25188;51.958;5.842;2022-12-18T02:22:36;40.50;;;17.63;;
39020;SDS011;25188;51.958;5.842;2022-12-18T02:25:29;45.10;;;19.40;;
39020;SDS011;25188;51.958;5.842;2022-12-18T02:28:04;45.07;;;17.23;;
39020;SDS011;25188;51.958;5.842;2022-12-18T02:30:34;44.37;;;18.90;;
39020;SDS011;25188;51.958;5.842;2022-12-18T02:33:02;41.50;;;18.00;;
39020;SDS011;25188;51.958;5.842;2022-12-18T02:35:31;37.90;;;17.53;;
39020;SDS011;25188;51.958;5.842;2022-12-18T02:37:58;46.83;;;17.77;;
39020;SDS011;25188;51.958;5.842;2022-12-18T02:40:25;43.47;;;18.20;;
39020;SDS011;25188;51.958;5.842;2022-12-18T02:42:52;42.93;;;19.50;;
39020;SDS011;25188;51.958;5.842;2022-12-18T02:45:18;39.17;;;17.60;;
39020;SDS011;25188;51.958;5.842;2022-12-18T02:47:45;47.20;;;18.53;;
39020;SDS011;25188;51.958;5.842;2022-12-18T02:58:16;42.50;;;17.33;;
39020;SDS011;25188;51.958;5.842;2022-12-18T03:03:24;39.47;;;17.70;;
39020;SDS011;25188;51.958;5.842;2022-12-18T03:09:02;41.63;;;16.23;;
39020;SDS011;25188;51.958;5.842;2022-12-18T03:11:34;43.20;;;17.10;;
39020;SDS011;25188;51.958;5.842;2022-12-18T03:14:23;37.50;;;15.33;;
39020;SDS011;25188;51.958;5.842;2022-12-18T03:16:52;38.17;;;16.30;;
39020;SDS011;25188;51.958;5.842;2022-12-18T03:19:24;40.97;;;16.90;;
39020;SDS011;25188;51.958;5.842;2022-12-18T03:21:53;40.07;;;16.43;;
39020;SDS011;25188;51.958;5.842;2022-12-18T03:24:21;40.73;;;16.77;;
39020;SDS011;25188;51.958;5.842;2022-12-18T03:26:50;41.37;;;17.30;;
39020;SDS011;25188;51.958;5.842;2022-12-18T03:29:19;40.57;;;18.40;;
39020;SDS011;25188;51.958;5.842;2022-12-18T03:31:51;35.10;;;15.67;;
39020;SDS011;25188;51.958;5.842;2022-12-18T03:34:24;30.77;;;14.37;;
39020;SDS011;25188;51.958;5.842;2022-12-18T03:39:20;36.97;;;14.83;;
39020;SDS011;25188;51.958;5.842;2022-12-18T03:55:19;34.70;;;14.67;;
39020;SDS011;25188;51.958;5.842;2022-12-18T03:57:47;34.00;;;14.57;;
39020;SDS011;25188;51.958;5.842;2022-12-18T04:00:14;31.43;;;14.50;;
39020;SDS011;25188;51.958;5.842;2022-12-18T04:02:44;35.03;;;14.93;;
39020;SDS011;25188;51.958;5.842;2022-12-18T04:05:15;35.73;;;14.73;;
39020;SDS011;25188;51.958;5.842;2022-12-18T04:07:43;33.30;;;14.37;;
39020;SDS011;25188;51.958;5.842;2022-12-18T04:10:11;38.97;;;15.77;;
39020;SDS011;25188;51.958;5.842;2022-12-18T04:12:38;34.63;;;16.57;;
39020;SDS011;25188;51.958;5.842;2022-12-18T04:15:04;37.00;;;16.37;;
39020;SDS011;25188;51.958;5.842;2022-12-18T04:17:30;35.73;;;15.93;;
39020;SDS011;25188;51.958;5.842;2022-12-18T04:19:56;34.83;;;15.63;;
39020;SDS011;25188;51.958;5.842;2022-12-18T04:22:22;37.77;;;15.07;;
39020;SDS011;25188;51.958;5.842;2022-12-18T04:24:47;39.00;;;14.83;;
39020;SDS011;25188;51.958;5.842;2022-12-18T04:27:13;35.93;;;15.13;;
39020;SDS011;25188;51.958;5.842;2022-12-18T04:29:39;34.13;;;15.33;;
39020;SDS011;25188;51.958;5.842;2022-12-18T04:32:04;35.00;;;15.60;;
39020;SDS011;25188;51.958;5.842;2022-12-18T04:34:30;31.13;;;14.43;;
39020;SDS011;25188;51.958;5.842;2022-12-18T04:36:56;29.83;;;14.13;;
39020;SDS011;25188;51.958;5.842;2022-12-18T04:39:21;29.97;;;13.87;;
39020;SDS011;25188;51.958;5.842;2022-12-18T04:41:47;29.40;;;13.77;;
39020;SDS011;25188;51.958;5.842;2022-12-18T04:44:13;27.53;;;12.90;;
39020;SDS011;25188;51.958;5.842;2022-12-18T04:46:39;31.80;;;14.20;;
39020;SDS011;25188;51.958;5.842;2022-12-18T04:49:04;27.23;;;13.07;;
39020;SDS011;25188;51.958;5.842;2022-12-18T04:51:30;30.80;;;13.53;;
39020;SDS011;25188;51.958;5.842;2022-12-18T04:53:55;29.27;;;12.50;;
39020;SDS011;25188;51.958;5.842;2022-12-18T04:56:21;26.30;;;11.87;;
39020;SDS011;25188;51.958;5.842;2022-12-18T04:58:47;34.47;;;13.43;;
39020;SDS011;25188;51.958;5.842;2022-12-18T05:01:13;30.67;;;12.30;;
39020;SDS011;25188;51.958;5.842;2022-12-18T05:03:41;31.57;;;11.70;;
39020;SDS011;25188;51.958;5.842;2022-12-18T05:06:07;24.13;;;11.23;;
39020;SDS011;25188;51.958;5.842;2022-12-18T05:08:33;25.00;;;11.50;;
39020;SDS011;25188;51.958;5.842;2022-12-18T05:11:06;27.47;;;12.07;;
39020;SDS011;25188;51.958;5.842;2022-12-18T05:13:33;23.93;;;10.87;;
39020;SDS011;25188;51.958;5.842;2022-12-18T05:16:00;22.50;;;11.30;;
39020;SDS011;25188;51.958;5.842;2022-12-18T05:18:25;30.80;;;11.77;;
39020;SDS011;25188;51.958;5.842;2022-12-18T05:20:51;32.70;;;13.50;;
39020;SDS011;25188;51.958;5.842;2022-12-18T05:23:19;25.60;;;11.63;;
39020;SDS011;25188;51.958;5.842;2022-12-18T05:25:52;34.33;;;12.53;;
39020;SDS011;25188;51.958;5.842;2022-12-18T05:28:19;24.20;;;11.48;;
39020;SDS011;25188;51.958;5.842;2022-12-18T05:30:52;24.97;;;11.77;;
39020;SDS011;25188;51.958;5.842;2022-12-18T05:33:19;26.63;;;10.65;;
39020;SDS011;25188;51.958;5.842;2022-12-18T05:35:51;24.97;;;11.40;;
39020;SDS011;25188;51.958;5.842;2022-12-18T05:38:18;28.80;;;12.37;;
39020;SDS011;25188;51.958;5.842;2022-12-18T05:40:44;23.57;;;10.90;;
39020;SDS011;25188;51.958;5.842;2022-12-18T05:43:10;24.57;;;11.13;;
39020;SDS011;25188;51.958;5.842;2022-12-18T05:45:37;23.47;;;11.23;;
39020;SDS011;25188;51.958;5.842;2022-12-18T05:48:03;26.40;;;11.97;;
39020;SDS011;25188;51.958;5.842;2022-12-18T05:50:29;26.37;;;11.63;;
39020;SDS011;25188;51.958;5.842;2022-12-18T05:52:55;24.33;;;11.50;;
39020;SDS011;25188;51.958;5.842;2022-12-18T05:55:20;28.03;;;12.17;;
39020;SDS011;25188;51.958;5.842;2022-12-18T05:57:46;24.27;;;11.67;;
39020;SDS011;25188;51.958;5.842;2022-12-18T06:00:11;25.40;;;12.30;;
39020;SDS011;25188;51.958;5.842;2022-12-18T06:02:38;27.27;;;11.80;;
39020;SDS011;25188;51.958;5.842;2022-12-18T06:05:03;23.23;;;11.00;;
39020;SDS011;25188;51.958;5.842;2022-12-18T06:07:29;24.30;;;11.57;;
39020;SDS011;25188;51.958;5.842;2022-12-18T06:09:55;28.10;;;11.90;;
39020;SDS011;25188;51.958;5.842;2022-12-18T06:12:20;22.40;;;10.70;;
39020;SDS011;25188;51.958;5.842;2022-12-18T06:14:46;22.47;;;10.53;;
39020;SDS011;25188;51.958;5.842;2022-12-18T06:17:12;26.67;;;11.93;;
39020;SDS011;25188;51.958;5.842;2022-12-18T06:19:37;25.53;;;10.87;;
39020;SDS011;25188;51.958;5.842;2022-12-18T06:22:03;23.13;;;11.57;;
39020;SDS011;25188;51.958;5.842;2022-12-18T06:24:29;23.07;;;10.73;;
39020;SDS011;25188;51.958;5.842;2022-12-18T06:26:55;25.97;;;11.33;;
39020;SDS011;25188;51.958;5.842;2022-12-18T06:29:20;24.47;;;11.97;;
39020;SDS011;25188;51.958;5.842;2022-12-18T06:31:46;22.97;;;10.63;;
39020;SDS011;25188;51.958;5.842;2022-12-18T06:34:12;22.70;;;11.23;;
39020;SDS011;25188;51.958;5.842;2022-12-18T06:36:37;24.67;;;11.43;;
39020;SDS011;25188;51.958;5.842;2022-12-18T06:39:03;24.87;;;10.97;;
39020;SDS011;25188;51.958;5.842;2022-12-18T06:41:28;23.57;;;10.67;;
39020;SDS011;25188;51.958;5.842;2022-12-18T06:43:54;26.27;;;12.07;;
39020;SDS011;25188;51.958;5.842;2022-12-18T06:46:20;23.47;;;10.90;;
39020;SDS011;25188;51.958;5.842;2022-12-18T06:48:49;23.70;;;10.93;;
39020;SDS011;25188;51.958;5.842;2022-12-18T06:51:15;22.97;;;10.70;;
39020;SDS011;25188;51.958;5.842;2022-12-18T06:53:45;22.57;;;11.23;;
39020;SDS011;25188;51.958;5.842;2022-12-18T06:56:10;25.87;;;11.60;;
39020;SDS011;25188;51.958;5.842;2022-12-18T06:58:37;24.67;;;10.63;;
39020;SDS011;25188;51.958;5.842;2022-12-18T07:01:04;21.30;;;10.83;;
39020;SDS011;25188;51.958;5.842;2022-12-18T07:03:31;21.00;;;10.33;;
39020;SDS011;25188;51.958;5.842;2022-12-18T07:05:56;19.90;;;10.00;;
39020;SDS011;25188;51.958;5.842;2022-12-18T07:08:22;26.30;;;11.60;;
39020;SDS011;25188;51.958;5.842;2022-12-18T07:10:48;21.50;;;10.53;;
39020;SDS011;25188;51.958;5.842;2022-12-18T07:13:16;24.33;;;11.80;;
39020;SDS011;25188;51.958;5.842;2022-12-18T07:15:42;25.00;;;11.03;;
39020;SDS011;25188;51.958;5.842;2022-12-18T07:18:08;27.20;;;12.10;;
39020;SDS011;25188;51.958;5.842;2022-12-18T07:20:34;23.43;;;10.70;;
39020;SDS011;25188;51.958;5.842;2022-12-18T07:23:01;21.63;;;10.77;;
39020;SDS011;25188;51.958;5.842;2022-12-18T07:25:28;23.37;;;11.10;;
39020;SDS011;25188;51.958;5.842;2022-12-18T07:27:54;21.97;;;10.20;;
39020;SDS011;25188;51.958;5.842;2022-12-18T07:30:20;20.83;;;10.70;;
39020;SDS011;25188;51.958;5.842;2022-12-18T07:32:46;23.77;;;10.47;;
39020;SDS011;25188;51.958;5.842;2022-12-18T07:35:12;27.63;;;11.37;;
39020;SDS011;25188;51.958;5.842;2022-12-18T07:37:38;22.93;;;11.10;;
39020;SDS011;25188;51.958;5.842;2022-12-18T07:40:03;23.07;;;11.00;;
39020;SDS011;25188;51.958;5.842;2022-12-18T07:42:29;24.97;;;10.70;;
39020;SDS011;25188;51.958;5.842;2022-12-18T07:44:55;25.47;;;10.67;;
39020;SDS011;25188;51.958;5.842;2022-12-18T07:47:21;24.20;;;11.13;;
39020;SDS011;25188;51.958;5.842;2022-12-18T07:49:47;27.47;;;11.23;;
39020;SDS011;25188;51.958;5.842;2022-12-18T07:52:12;24.60;;;11.30;;
39020;SDS011;25188;51.958;5.842;2022-12-18T07:54:38;23.07;;;10.60;;
39020;SDS011;25188;51.958;5.842;2022-12-18T07:57:05;23.03;;;10.63;;
39020;SDS011;25188;51.958;5.842;2022-12-18T07:59:31;23.90;;;10.13;;
39020;SDS011;25188;51.958;5.842;2022-12-18T08:01:56;26.13;;;11.07;;
39020;SDS011;25188;51.958;5.842;2022-12-18T08:04:22;17.77;;;9.00;;
39020;SDS011;25188;51.958;5.842;2022-12-18T08:06:48;22.97;;;11.27;;
39020;SDS011;25188;51.958;5.842;2022-12-18T08:09:13;20.03;;;9.83;;
39020;SDS011;25188;51.958;5.842;2022-12-18T08:11:39;25.07;;;10.60;;
39020;SDS011;25188;51.958;5.842;2022-12-18T08:14:04;21.90;;;10.50;;
39020;SDS011;25188;51.958;5.842;2022-12-18T08:16:30;21.67;;;10.37;;
39020;SDS011;25188;51.958;5.842;2022-12-18T08:18:56;19.60;;;8.83;;
39020;SDS011;25188;51.958;5.842;2022-12-18T08:21:29;19.03;;;9.60;;
39020;SDS011;25188;51.958;5.842;2022-12-18T08:23:56;20.83;;;9.23;;
39020;SDS011;25188;51.958;5.842;2022-12-18T08:26:24;17.67;;;9.40;;
39020;SDS011;25188;51.958;5.842;2022-12-18T08:28:51;21.00;;;9.77;;
39020;SDS011;25188;51.958;5.842;2022-12-18T08:31:19;19.30;;;9.37;;
39020;SDS011;25188;51.958;5.842;2022-12-18T08:33:45;19.47;;;8.77;;
39020;SDS011;25188;51.958;5.842;2022-12-18T08:36:12;19.70;;;9.60;;
39020;SDS011;25188;51.958;5.842;2022-12-18T08:38:38;20.20;;;10.00;;
39020;SDS011;25188;51.958;5.842;2022-12-18T08:41:05;20.40;;;9.57;;
39020;SDS011;25188;51.958;5.842;2022-12-18T08:43:32;22.23;;;9.77;;
39020;SDS011;25188;51.958;5.842;2022-12-18T08:48:42;18.10;;;8.07;;
39020;SDS011;25188;51.958;5.842;2022-12-18T08:51:08;19.70;;;8.17;;
39020;SDS011;25188;51.958;5.842;2022-12-18T08:53:37;15.10;;;7.40;;
39020;SDS011;25188;51.958;5.842;2022-12-18T08:56:03;19.17;;;8.70;;
39020;SDS011;25188;51.958;5.842;2022-12-18T08:58:29;16.57;;;8.63;;
39020;SDS011;25188;51.958;5.842;2022-12-18T09:01:05;18.17;;;8.40;;
39020;SDS011;25188;51.958;5.842;2022-12-18T09:03:32;17.83;;;7.80;;
39020;SDS011;25188;51.958;5.842;2022-12-18T09:05:58;16.87;;;7.83;;
39020;SDS011;25188;51.958;5.842;2022-12-18T09:08:24;15.17;;;7.03;;
39020;SDS011;25188;51.958;5.842;2022-12-18T09:10:50;16.90;;;8.17;;
39020;SDS011;25188;51.958;5.842;2022-12-18T09:13:16;16.50;;;8.00;;
39020;SDS011;25188;51.958;5.842;2022-12-18T09:15:43;18.27;;;8.87;;
39020;SDS011;25188;51.958;5.842;2022-12-18T09:18:13;17.00;;;8.13;;
39020;SDS011;25188;51.958;5.842;2022-12-18T09:20:40;16.50;;;8.63;;
39020;SDS011;25188;51.958;5.842;2022-12-18T09:23:06;17.43;;;7.80;;
39020;SDS011;25188;51.958;5.842;2022-12-18T09:25:33;17.03;;;8.47;;
39020;SDS011;25188;51.958;5.842;2022-12-18T09:28:02;15.87;;;7.87;;
39020;SDS011;25188;51.958;5.842;2022-12-18T09:30:30;15.73;;;7.90;;
39020;SDS011;25188;51.958;5.842;2022-12-18T09:32:58;20.03;;;8.87;;
39020;SDS011;25188;51.958;5.842;2022-12-18T09:35:24;16.17;;;8.43;;
39020;SDS011;25188;51.958;5.842;2022-12-18T09:37:49;20.93;;;8.27;;
39020;SDS011;25188;51.958;5.842;2022-12-18T09:40:19;18.00;;;7.57;;
39020;SDS011;25188;51.958;5.842;2022-12-18T09:42:48;19.53;;;9.63;;
39020;SDS011;25188;51.958;5.842;2022-12-18T09:45:19;17.43;;;8.50;;
39020;SDS011;25188;51.958;5.842;2022-12-18T09:47:45;15.77;;;6.83;;
39020;SDS011;25188;51.958;5.842;2022-12-18T09:50:20;15.70;;;7.30;;
39020;SDS011;25188;51.958;5.842;2022-12-18T09:52:59;15.70;;;7.80;;
39020;SDS011;25188;51.958;5.842;2022-12-18T09:55:35;16.03;;;8.00;;
39020;SDS011;25188;51.958;5.842;2022-12-18T09:58:07;16.67;;;7.30;;
39020;SDS011;25188;51.958;5.842;2022-12-18T10:00:44;18.00;;;7.40;;
39020;SDS011;25188;51.958;5.842;2022-12-18T10:03:10;15.83;;;7.70;;
39020;SDS011;25188;51.958;5.842;2022-12-18T10:05:43;18.13;;;8.23;;
39020;SDS011;25188;51.958;5.842;2022-12-18T10:08:21;19.43;;;8.70;;
39020;SDS011;25188;51.958;5.842;2022-12-18T10:11:01;18.03;;;9.33;;
39020;SDS011;25188;51.958;5.842;2022-12-18T10:16:54;17.07;;;8.23;;
39020;SDS011;25188;51.958;5.842;2022-12-18T10:27:56;16.23;;;7.40;;
39020;SDS011;25188;51.958;5.842;2022-12-18T10:30:25;15.73;;;7.83;;
39020;SDS011;25188;51.958;5.842;2022-12-18T10:32:51;17.17;;;8.37;;
39020;SDS011;25188;51.958;5.842;2022-12-18T10:35:18;15.37;;;7.57;;
39020;SDS011;25188;51.958;5.842;2022-12-18T10:43:24;14.90;;;7.03;;
39020;SDS011;25188;51.958;5.842;2022-12-18T10:48:33;15.03;;;7.07;;
39020;SDS011;25188;51.958;5.842;2022-12-18T10:51:01;16.60;;;8.17;;
39020;SDS011;25188;51.958;5.842;2022-12-18T10:53:29;17.53;;;8.30;;
39020;SDS011;25188;51.958;5.842;2022-12-18T10:55:57;19.70;;;9.40;;
39020;SDS011;25188;51.958;5.842;2022-12-18T10:58:31;19.23;;;10.00;;
39020;SDS011;25188;51.958;5.842;2022-12-18T11:01:12;19.13;;;8.97;;
39020;SDS011;25188;51.958;5.842;2022-12-18T11:03:58;16.73;;;8.43;;
39020;SDS011;25188;51.958;5.842;2022-12-18T11:06:26;16.63;;;8.77;;
39020;SDS011;25188;51.958;5.842;2022-12-18T11:11:25;16.33;;;8.70;;
39020;SDS011;25188;51.958;5.842;2022-12-18T11:16:42;17.00;;;8.73;;
39020;SDS011;25188;51.958;5.842;2022-12-18T11:19:10;17.00;;;9.27;;
39020;SDS011;25188;51.958;5.842;2022-12-18T11:21:56;18.30;;;8.33;;
39020;SDS011;25188;51.958;5.842;2022-12-18T11:24:36;20.90;;;9.03;;
39020;SDS011;25188;51.958;5.842;2022-12-18T11:27:03;20.60;;;9.10;;
39020;SDS011;25188;51.958;5.842;2022-12-18T11:29:32;16.73;;;8.90;;
39020;SDS011;25188;51.958;5.842;2022-12-18T11:32:22;19.83;;;9.23;;
39020;SDS011;25188;51.958;5.842;2022-12-18T11:34:51;17.73;;;8.43;;
39020;SDS011;25188;51.958;5.842;2022-12-18T11:37:20;17.87;;;8.47;;
39020;SDS011;25188;51.958;5.842;2022-12-18T11:39:49;15.40;;;8.20;;
39020;SDS011;25188;51.958;5.842;2022-12-18T11:42:35;15.90;;;7.87;;
39020;SDS011;25188;51.958;5.842;2022-12-18T11:47:40;18.20;;;9.07;;
39020;SDS011;25188;51.958;5.842;2022-12-18T11:50:12;19.20;;;9.53;;
39020;SDS011;25188;51.958;5.842;2022-12-18T11:52:42;17.30;;;8.13;;
39020;SDS011;25188;51.958;5.842;2022-12-18T11:55:12;20.43;;;8.77;;
39020;SDS011;25188;51.958;5.842;2022-12-18T11:57:49;18.47;;;9.53;;
39020;SDS011;25188;51.958;5.842;2022-12-18T12:00:35;17.77;;;9.35;;
39020;SDS011;25188;51.958;5.842;2022-12-18T12:09:13;19.93;;;9.43;;
39020;SDS011;25188;51.958;5.842;2022-12-18T12:11:47;17.67;;;8.60;;
39020;SDS011;25188;51.958;5.842;2022-12-18T12:19:29;18.97;;;8.63;;
39020;SDS011;25188;51.958;5.842;2022-12-18T12:25:17;16.73;;;8.80;;
39020;SDS011;25188;51.958;5.842;2022-12-18T12:30:47;18.17;;;8.33;;
39020;SDS011;25188;51.958;5.842;2022-12-18T12:33:35;18.33;;;8.47;;
39020;SDS011;25188;51.958;5.842;2022-12-18T12:41:23;18.73;;;8.87;;
39020;SDS011;25188;51.958;5.842;2022-12-18T12:44:15;17.17;;;8.50;;
39020;SDS011;25188;51.958;5.842;2022-12-18T12:46:47;19.53;;;8.63;;
39020;SDS011;25188;51.958;5.842;2022-12-18T12:49:15;16.87;;;8.90;;
39020;SDS011;25188;51.958;5.842;2022-12-18T12:51:44;17.97;;;9.27;;
39020;SDS011;25188;51.958;5.842;2022-12-18T12:54:17;20.17;;;10.23;;
39020;SDS011;25188;51.958;5.842;2022-12-18T12:56:48;17.30;;;9.10;;
39020;SDS011;25188;51.958;5.842;2022-12-18T13:02:33;15.40;;;8.03;;
39020;SDS011;25188;51.958;5.842;2022-12-18T13:08:09;20.57;;;9.57;;
39020;SDS011;25188;51.958;5.842;2022-12-18T13:10:37;18.50;;;9.57;;
39020;SDS011;25188;51.958;5.842;2022-12-18T13:13:13;19.50;;;9.57;;
39020;SDS011;25188;51.958;5.842;2022-12-18T13:23:01;19.57;;;10.03;;
39020;SDS011;25188;51.958;5.842;2022-12-18T13:25:50;18.70;;;9.27;;
39020;SDS011;25188;51.958;5.842;2022-12-18T13:31:11;19.90;;;10.30;;
39020;SDS011;25188;51.958;5.842;2022-12-18T13:36:48;20.20;;;10.07;;
39020;SDS011;25188;51.958;5.842;2022-12-18T13:41:44;21.83;;;9.63;;
39020;SDS011;25188;51.958;5.842;2022-12-18T13:47:05;18.13;;;9.10;;
39020;SDS011;25188;51.958;5.842;2022-12-18T13:50:10;21.90;;;9.63;;
39020;SDS011;25188;51.958;5.842;2022-12-18T13:55:16;20.60;;;9.37;;
39020;SDS011;25188;51.958;5.842;2022-12-18T13:57:44;18.53;;;9.00;;
39020;SDS011;25188;51.958;5.842;2022-12-18T14:02:44;18.43;;;9.57;;
39020;SDS011;25188;51.958;5.842;2022-12-18T14:05:21;19.07;;;9.83;;
39020;SDS011;25188;51.958;5.842;2022-12-18T14:07:52;18.30;;;9.80;;
39020;SDS011;25188;51.958;5.842;2022-12-18T14:10:18;20.83;;;10.40;;
39020;SDS011;25188;51.958;5.842;2022-12-18T14:18:48;18.93;;;9.80;;
39020;SDS011;25188;51.958;5.842;2022-12-18T14:21:45;21.60;;;10.33;;
39020;SDS011;25188;51.958;5.842;2022-12-18T14:24:16;20.20;;;9.77;;
39020;SDS011;25188;51.958;5.842;2022-12-18T14:26:44;21.37;;;10.80;;
39020;SDS011;25188;51.958;5.842;2022-12-18T14:29:29;21.00;;;11.23;;
39020;SDS011;25188;51.958;5.842;2022-12-18T14:34:50;19.77;;;9.93;;
39020;SDS011;25188;51.958;5.842;2022-12-18T14:37:22;19.93;;;10.20;;
39020;SDS011;25188;51.958;5.842;2022-12-18T14:39:57;20.43;;;10.83;;
39020;SDS011;25188;51.958;5.842;2022-12-18T14:42:24;19.93;;;11.03;;
39020;SDS011;25188;51.958;5.842;2022-12-18T14:45:31;21.60;;;10.60;;
39020;SDS011;25188;51.958;5.842;2022-12-18T14:47:58;23.67;;;11.52;;
39020;SDS011;25188;51.958;5.842;2022-12-18T14:50:25;20.87;;;10.47;;
39020;SDS011;25188;51.958;5.842;2022-12-18T14:52:51;21.40;;;10.97;;
39020;SDS011;25188;51.958;5.842;2022-12-18T14:55:17;24.90;;;11.97;;
39020;SDS011;25188;51.958;5.842;2022-12-18T14:57:44;24.43;;;11.50;;
39020;SDS011;25188;51.958;5.842;2022-12-18T15:00:17;18.63;;;9.90;;
39020;SDS011;25188;51.958;5.842;2022-12-18T15:02:46;19.37;;;9.93;;
39020;SDS011;25188;51.958;5.842;2022-12-18T15:05:29;20.20;;;11.03;;
39020;SDS011;25188;51.958;5.842;2022-12-18T15:07:57;21.27;;;10.47;;
39020;SDS011;25188;51.958;5.842;2022-12-18T15:10:25;22.17;;;10.87;;
39020;SDS011;25188;51.958;5.842;2022-12-18T15:25:57;21.83;;;10.77;;
39020;SDS011;25188;51.958;5.842;2022-12-18T15:28:32;21.53;;;11.47;;
39020;SDS011;25188;51.958;5.842;2022-12-18T15:31:34;23.60;;;12.40;;
39020;SDS011;25188;51.958;5.842;2022-12-18T15:36:22;20.67;;;11.17;;
39020;SDS011;25188;51.958;5.842;2022-12-18T15:38:52;23.93;;;12.47;;
39020;SDS011;25188;51.958;5.842;2022-12-18T15:41:19;23.43;;;12.37;;
39020;SDS011;25188;51.958;5.842;2022-12-18T15:43:47;24.13;;;12.40;;
39020;SDS011;25188;51.958;5.842;2022-12-18T15:46:15;23.53;;;11.47;;
39020;SDS011;25188;51.958;5.842;2022-12-18T15:48:47;20.90;;;10.97;;
39020;SDS011;25188;51.958;5.842;2022-12-18T15:51:18;25.97;;;13.13;;
39020;SDS011;25188;51.958;5.842;2022-12-18T15:54:11;22.07;;;10.80;;
39020;SDS011;25188;51.958;5.842;2022-12-18T15:56:41;23.80;;;12.23;;
39020;SDS011;25188;51.958;5.842;2022-12-18T15:59:25;26.63;;;12.27;;
39020;SDS011;25188;51.958;5.842;2022-12-18T16:01:51;24.77;;;12.37;;
39020;SDS011;25188;51.958;5.842;2022-12-18T16:04:21;28.63;;;14.63;;
39020;SDS011;25188;51.958;5.842;2022-12-18T16:06:48;28.77;;;14.53;;
39020;SDS011;25188;51.958;5.842;2022-12-18T16:09:14;28.93;;;14.30;;
39020;SDS011;25188;51.958;5.842;2022-12-18T16:11:41;27.57;;;13.40;;
39020;SDS011;25188;51.958;5.842;2022-12-18T16:16:43;25.50;;;13.00;;
39020;SDS011;25188;51.958;5.842;2022-12-18T16:19:12;25.50;;;13.77;;
39020;SDS011;25188;51.958;5.842;2022-12-18T16:21:39;27.10;;;13.13;;
39020;SDS011;25188;51.958;5.842;2022-12-18T16:24:04;26.20;;;13.13;;
39020;SDS011;25188;51.958;5.842;2022-12-18T16:26:30;30.73;;;15.30;;
39020;SDS011;25188;51.958;5.842;2022-12-18T16:28:56;28.80;;;15.27;;
39020;SDS011;25188;51.958;5.842;2022-12-18T16:31:21;27.40;;;14.83;;
39020;SDS011;25188;51.958;5.842;2022-12-18T16:33:47;32.03;;;15.93;;
39020;SDS011;25188;51.958;5.842;2022-12-18T16:36:13;28.00;;;15.40;;
39020;SDS011;25188;51.958;5.842;2022-12-18T16:38:38;27.23;;;14.67;;
39020;SDS011;25188;51.958;5.842;2022-12-18T16:41:17;29.63;;;14.57;;
39020;SDS011;25188;51.958;5.842;2022-12-18T16:43:55;28.50;;;15.57;;
39020;SDS011;25188;51.958;5.842;2022-12-18T16:46:21;32.53;;;16.00;;
39020;SDS011;25188;51.958;5.842;2022-12-18T16:48:47;30.47;;;14.57;;
39020;SDS011;25188;51.958;5.842;2022-12-18T16:51:12;28.43;;;14.83;;
39020;SDS011;25188;51.958;5.842;2022-12-18T16:53:38;28.57;;;14.77;;
39020;SDS011;25188;51.958;5.842;2022-12-18T16:56:04;27.90;;;14.33;;
39020;SDS011;25188;51.958;5.842;2022-12-18T16:58:29;28.07;;;14.97;;
39020;SDS011;25188;51.958;5.842;2022-12-18T17:00:55;28.47;;;14.83;;
39020;SDS011;25188;51.958;5.842;2022-12-18T17:03:20;31.50;;;15.93;;
39020;SDS011;25188;51.958;5.842;2022-12-18T17:05:46;30.07;;;16.30;;
39020;SDS011;25188;51.958;5.842;2022-12-18T17:08:12;33.30;;;16.23;;
39020;SDS011;25188;51.958;5.842;2022-12-18T17:10:37;33.37;;;17.23;;